Flight Track Log - Related Links

Times and Time Zones

All times are in EDT time to prevent confusion due to time zone crossing. See the JZA8121 flight status page for this flight to view local times or setup timezone preferences in your user account.

Time Position Orientation Groundspeed Altitude Reporting Facility
EDT Latitude Longitude Course Direction KTS MPH feet Rate Location/Type
Sun 11:55:10 AM 49.1667 -123.1667 156° South 20 23 100  Level Vancouver Center
Sun 11:56:10 AM 49.1500 -123.2167 243° Southwest 130 150 1,500 1,200 Climbing Vancouver Center
Sun 11:57:10 AM 49.1167 -123.2667 224° Southwest 160 184 2,500 1,050 Climbing Vancouver Center
Sun 11:58:10 AM 49.0667 -123.3167 213° Southwest 180 207 3,600 1,050 Climbing Vancouver Center
Sun 11:59:00 AM 48.9003 -123.0500 180° South  Level FlightAware Approximate
Sun 11:59:10 AM 49.0333 -123.3333 198° South 170 196 4,600  Level Vancouver Center
Sun 12:00:00 PM 48.8393 -123.0187 168° South  Level FlightAware Approximate
Sun 12:00:10 PM 48.9833 -123.3167 168° South 180 207 6,000  Level Vancouver Center
Sun 12:01:00 PM 48.7765 -122.9955 156° South  Level FlightAware Approximate
Sun 12:01:10 PM 48.9500 -123.2833 147° Southeast 160 184 7,300  Level Vancouver Center
Sun 12:02:10 PM 48.9000 -123.2667 168° South 170 196 8,500 1,050 Climbing Vancouver Center
Sun 12:03:10 PM 48.8500 -123.2333 156° South 170 196 9,400 900 Climbing Vancouver Center
Sun 12:04:10 PM 48.8000 -123.2167 168° South 190 219 10,300 950 Climbing Vancouver Center
Sun 12:05:10 PM 48.7500 -123.1667 147° Southeast 200 230 11,300 1,050 Climbing Vancouver Center
Sun 12:06:10 PM 48.7000 -123.1500 168° South 200 230 12,400 950 Climbing Vancouver Center
Sun 12:07:10 PM 48.6500 -123.1167 156° South 210 242 13,200 850 Climbing Vancouver Center
Sun 12:08:10 PM 48.6000 -123.0667 147° Southeast 210 242 14,100 933 Climbing Vancouver Center
Sun 12:08:40 PM 48.5886 -123.0558 148° Southeast 209 241 14,600 857 Climbing Seattle Center
Sun 12:09:41 PM 48.5361 -123.0222 157° South 209 241 15,400 787 Climbing Seattle Center
Sun 12:10:42 PM 48.4836 -122.9858 155° Southeast 209 241 16,200 787 Climbing Seattle Center
Sun 12:11:43 PM 48.4306 -122.9489 155° Southeast 211 243 17,000 393 Climbing Seattle Center
Sun 12:12:44 PM 48.3750 -122.9147 158° South 214 246 17,000  Level Seattle Center
Sun 12:13:45 PM 48.3114 -122.8683 154° Southeast 250 288 17,000  Level Seattle Center
Sun 12:14:45 PM 48.2594 -122.7972 138° Southeast 253 291 17,000  Level Seattle Center
Sun 12:15:46 PM 48.2067 -122.7269 138° Southeast 256 295 17,000  Level Seattle Center
Sun 12:16:47 PM 48.1456 -122.6392 136° Southeast 256 295 17,000  Level Seattle Center
Sun 12:17:48 PM 48.0883 -122.5758 144° Southeast 262 302 17,000  Level Seattle Center
Sun 12:18:49 PM 48.0147 -122.5497 167° South 272 313 17,000  Level Seattle Center
Sun 12:19:50 PM 47.9419 -122.5197 165° South 273 314 17,000  Level Seattle Center
Sun 12:20:50 PM 47.8703 -122.4897 164° South 272 313 17,000  Level Seattle Center
Sun 12:21:51 PM 47.7864 -122.4553 165° South 276 318 17,000  Level Seattle Center
Sun 12:22:52 PM 47.7125 -122.4244 164° South 276 318 17,000  Level Seattle Center
Sun 12:23:53 PM 47.6394 -122.3950 165° South 273 314 17,000  Level Seattle Center
Sun 12:24:54 PM 47.5675 -122.3653 164° South 269 310 17,000 -49 Level Seattle Center
Sun 12:25:55 PM 47.4964 -122.3364 165° South 270 311 16,900  Descending Seattle Center
Sun 12:26:56 PM 47.4275 -122.3086 165° South 273 314 17,000 50 Climbing Seattle Center
Sun 12:27:56 PM 47.3394 -122.3097 180° South 282 325 17,000  Level Seattle Center
Sun 12:28:57 PM 47.2611 -122.3106 180° South 283 326 17,000  Level Seattle Center
Sun 12:29:58 PM 47.1839 -122.3094 179° South 281 323 17,000  Level Seattle Center
Sun 12:30:59 PM 47.0994 -122.3089 180° South 282 325 17,000  Level Seattle Center
Sun 12:32:00 PM 47.0211 -122.3094 180° South 282 325 17,000  Level Seattle Center
Sun 12:33:01 PM 46.9431 -122.3100 180° South 280 322 17,000  Level Seattle Center
Sun 12:34:02 PM 46.8647 -122.3094 180° South 282 325 17,000  Level Seattle Center
Sun 12:35:03 PM 46.7875 -122.3103 180° South 280 322 17,000  Level Seattle Center
Sun 12:36:04 PM 46.7150 -122.3172 184° South 280 322 17,000  Level Seattle Center
Sun 12:37:04 PM 46.6378 -122.3289 186° South 283 326 17,000  Level Seattle Center
Sun 12:38:05 PM 46.5597 -122.3417 186° South 284 327 17,000 -716 Level Seattle Center
Sun 12:39:18 PM 46.4439 -122.3608 187° South 320 368 15,400 -1,328 Descending Seattle Center
Sun 12:40:07 PM 46.3725 -122.3642 182° South 314 361 14,300 -1,333 Descending Seattle Center
Sun 12:40:30 PM 46.3375 -122.3708 187° South 312 359 13,800 -1,180 Descending Seattle Center
Sun 12:41:08 PM 46.2894 -122.3758 184° South 304 350 13,100 -1,212 Descending Seattle Center
Sun 12:42:09 PM 46.2100 -122.3831 184° South 292 336 11,800 -1,377 Descending Seattle Center
Sun 12:43:10 PM 46.1317 -122.4022 190° South 288 331 10,300 -1,231 Descending Seattle Center
Sun 12:43:27 PM 46.1033 -122.4031 181° South 288 331 10,200 -800 Descending Seattle Center
Sun 12:44:10 PM 46.0583 -122.4139 189° South 257 296 9,500 -984 Descending Seattle Center
Sun 12:44:28 PM 46.0353 -122.4314 208° Southwest 253 291 9,200 -984 Descending Seattle Center
Sun 12:45:11 PM 45.9936 -122.4544 201° Southwest 255 293 8,500 -991 Descending Seattle Center
Sun 12:46:23 PM 45.9092 -122.5056 203° Southwest 256 295 7,300 -1,033 Descending Seattle Center
Sun 12:47:13 PM 45.8617 -122.5344 203° Southwest 257 296 6,400 -1,215 Descending Seattle Center
Sun 12:47:42 PM 45.8269 -122.5703 216° Southwest 250 288 5,700 -1,157 Descending Seattle Center
Sun 12:48:36 PM 45.7783 -122.6089 209° Southwest 220 253 4,800 -968 Descending Seattle Center
Sun 12:49:15 PM 45.7528 -122.6325 213° Southwest 225 259 4,200 -1,082 Descending Seattle Center
Sun 12:49:37 PM 45.7189 -122.6581 208° Southwest 228 262 3,700 -984 Descending Seattle Center
Sun 12:50:16 PM 45.6978 -122.6794 215° Southwest 229 264 3,200 -1,200 Descending Seattle Center
Sun 12:50:37 PM 45.6700 -122.7058 214° Southwest 212 244 2,500 -1,279 Descending Seattle Center
Sun 12:51:17 PM 45.6400 -122.7189 197° South 211 243 1,900 -873 Descending Seattle Center
Sun 12:51:32 PM 45.6350 -122.7047 117° Southeast 161 185 1,700 -800 Descending Seattle Center

Login

Don't have an account? Register now (free) for customized features, flight alerts, and more!